sensor_id;sensor_type;location;lat;lon;timestamp;P1;durP1;ratioP1;P2;durP2;ratioP2
23258;SDS011;11798;51.528;7.240;2022-09-09T00:04:15;4.77;;;1.40;;
23258;SDS011;11798;51.528;7.240;2022-09-09T00:10:13;2.27;;;1.03;;
23258;SDS011;11798;51.528;7.240;2022-09-09T00:20:12;3.63;;;1.70;;
23258;SDS011;11798;51.528;7.240;2022-09-09T00:22:49;4.07;;;1.53;;
23258;SDS011;11798;51.528;7.240;2022-09-09T00:25:26;3.77;;;1.63;;
23258;SDS011;11798;51.528;7.240;2022-09-09T00:27:57;2.77;;;1.60;;
23258;SDS011;11798;51.528;7.240;2022-09-09T00:30:32;2.70;;;1.40;;
23258;SDS011;11798;51.528;7.240;2022-09-09T00:33:01;3.23;;;1.23;;
23258;SDS011;11798;51.528;7.240;2022-09-09T00:35:56;2.63;;;1.33;;
23258;SDS011;11798;51.528;7.240;2022-09-09T00:41:07;1.53;;;0.87;;
23258;SDS011;11798;51.528;7.240;2022-09-09T00:50:03;1.50;;;1.10;;
23258;SDS011;11798;51.528;7.240;2022-09-09T00:57:40;2.17;;;1.20;;
23258;SDS011;11798;51.528;7.240;2022-09-09T01:00:16;3.57;;;1.30;;
23258;SDS011;11798;51.528;7.240;2022-09-09T01:08:00;2.80;;;1.57;;
23258;SDS011;11798;51.528;7.240;2022-09-09T01:13:22;3.13;;;1.30;;
23258;SDS011;11798;51.528;7.240;2022-09-09T01:15:50;4.43;;;1.47;;
23258;SDS011;11798;51.528;7.240;2022-09-09T01:18:19;3.13;;;1.33;;
23258;SDS011;11798;51.528;7.240;2022-09-09T01:27:00;4.67;;;1.83;;
23258;SDS011;11798;51.528;7.240;2022-09-09T01:29:28;3.90;;;2.30;;
23258;SDS011;11798;51.528;7.240;2022-09-09T01:31:59;3.30;;;2.13;;
23258;SDS011;11798;51.528;7.240;2022-09-09T01:34:31;5.50;;;2.10;;
23258;SDS011;11798;51.528;7.240;2022-09-09T01:37:03;4.03;;;2.67;;
23258;SDS011;11798;51.528;7.240;2022-09-09T01:39:35;7.07;;;2.60;;
23258;SDS011;11798;51.528;7.240;2022-09-09T01:42:02;5.30;;;2.63;;
23258;SDS011;11798;51.528;7.240;2022-09-09T01:44:31;3.27;;;2.70;;
23258;SDS011;11798;51.528;7.240;2022-09-09T01:46:57;4.93;;;3.10;;
23258;SDS011;11798;51.528;7.240;2022-09-09T01:49:22;6.90;;;3.77;;
23258;SDS011;11798;51.528;7.240;2022-09-09T01:51:50;6.83;;;3.40;;
23258;SDS011;11798;51.528;7.240;2022-09-09T01:54:19;5.50;;;3.03;;
23258;SDS011;11798;51.528;7.240;2022-09-09T02:00:37;6.77;;;3.20;;
23258;SDS011;11798;51.528;7.240;2022-09-09T02:13:30;6.80;;;4.17;;
23258;SDS011;11798;51.528;7.240;2022-09-09T02:19:08;5.23;;;3.40;;
23258;SDS011;11798;51.528;7.240;2022-09-09T02:21:14;7.60;;;3.90;;
23258;SDS011;11798;51.528;7.240;2022-09-09T02:23:42;7.23;;;4.37;;
23258;SDS011;11798;51.528;7.240;2022-09-09T02:26:10;4.37;;;3.27;;
23258;SDS011;11798;51.528;7.240;2022-09-09T02:28:38;4.00;;;3.60;;
23258;SDS011;11798;51.528;7.240;2022-09-09T02:31:05;9.33;;;3.90;;
23258;SDS011;11798;51.528;7.240;2022-09-09T02:33:36;6.30;;;3.30;;
23258;SDS011;11798;51.528;7.240;2022-09-09T02:36:10;5.50;;;3.70;;
23258;SDS011;11798;51.528;7.240;2022-09-09T02:38:39;8.47;;;3.97;;
23258;SDS011;11798;51.528;7.240;2022-09-09T02:41:10;7.10;;;3.77;;
23258;SDS011;11798;51.528;7.240;2022-09-09T02:43:36;6.90;;;3.97;;
23258;SDS011;11798;51.528;7.240;2022-09-09T02:46:14;7.60;;;4.13;;
23258;SDS011;11798;51.528;7.240;2022-09-09T02:49:03;5.27;;;3.90;;
23258;SDS011;11798;51.528;7.240;2022-09-09T02:51:53;7.37;;;4.10;;
23258;SDS011;11798;51.528;7.240;2022-09-09T02:54:32;6.60;;;4.40;;
23258;SDS011;11798;51.528;7.240;2022-09-09T02:57:06;5.33;;;3.63;;
23258;SDS011;11798;51.528;7.240;2022-09-09T02:59:39;7.43;;;3.80;;
23258;SDS011;11798;51.528;7.240;2022-09-09T03:02:06;6.93;;;3.83;;
23258;SDS011;11798;51.528;7.240;2022-09-09T03:04:32;9.03;;;3.50;;
23258;SDS011;11798;51.528;7.240;2022-09-09T03:06:58;8.50;;;3.60;;
23258;SDS011;11798;51.528;7.240;2022-09-09T03:09:24;7.17;;;4.00;;
23258;SDS011;11798;51.528;7.240;2022-09-09T03:11:50;8.27;;;3.63;;
23258;SDS011;11798;51.528;7.240;2022-09-09T03:14:16;4.67;;;3.30;;
23258;SDS011;11798;51.528;7.240;2022-09-09T03:16:46;9.53;;;3.53;;
23258;SDS011;11798;51.528;7.240;2022-09-09T03:19:12;5.23;;;3.43;;
23258;SDS011;11798;51.528;7.240;2022-09-09T03:21:39;5.30;;;3.53;;
23258;SDS011;11798;51.528;7.240;2022-09-09T03:24:04;6.77;;;3.00;;
23258;SDS011;11798;51.528;7.240;2022-09-09T03:26:31;4.03;;;3.00;;
23258;SDS011;11798;51.528;7.240;2022-09-09T03:28:57;6.00;;;2.63;;
23258;SDS011;11798;51.528;7.240;2022-09-09T03:31:25;3.57;;;2.20;;
23258;SDS011;11798;51.528;7.240;2022-09-09T03:33:51;5.77;;;2.40;;
23258;SDS011;11798;51.528;7.240;2022-09-09T03:36:16;4.70;;;2.50;;
23258;SDS011;11798;51.528;7.240;2022-09-09T03:38:42;3.53;;;1.87;;
23258;SDS011;11798;51.528;7.240;2022-09-09T03:41:07;5.00;;;2.20;;
23258;SDS011;11798;51.528;7.240;2022-09-09T03:43:33;6.03;;;2.93;;
23258;SDS011;11798;51.528;7.240;2022-09-09T03:45:59;5.50;;;2.40;;
23258;SDS011;11798;51.528;7.240;2022-09-09T03:48:25;4.83;;;2.20;;
23258;SDS011;11798;51.528;7.240;2022-09-09T03:50:53;4.30;;;2.20;;
23258;SDS011;11798;51.528;7.240;2022-09-09T03:53:23;3.17;;;2.40;;
23258;SDS011;11798;51.528;7.240;2022-09-09T03:55:51;3.77;;;2.10;;
23258;SDS011;11798;51.528;7.240;2022-09-09T03:58:19;6.60;;;2.97;;
23258;SDS011;11798;51.528;7.240;2022-09-09T04:00:58;3.57;;;2.33;;
23258;SDS011;11798;51.528;7.240;2022-09-09T04:03:29;4.80;;;2.20;;
23258;SDS011;11798;51.528;7.240;2022-09-09T04:05:55;3.50;;;2.00;;
23258;SDS011;11798;51.528;7.240;2022-09-09T04:08:23;4.10;;;2.63;;
23258;SDS011;11798;51.528;7.240;2022-09-09T04:10:52;4.73;;;2.03;;
23258;SDS011;11798;51.528;7.240;2022-09-09T04:13:18;6.17;;;2.80;;
23258;SDS011;11798;51.528;7.240;2022-09-09T04:15:50;6.53;;;2.40;;
23258;SDS011;11798;51.528;7.240;2022-09-09T04:18:17;4.77;;;2.53;;
23258;SDS011;11798;51.528;7.240;2022-09-09T04:20:42;3.70;;;1.83;;
23258;SDS011;11798;51.528;7.240;2022-09-09T04:23:10;8.10;;;2.60;;
23258;SDS011;11798;51.528;7.240;2022-09-09T04:25:37;6.43;;;2.30;;
23258;SDS011;11798;51.528;7.240;2022-09-09T04:28:03;5.20;;;2.80;;
23258;SDS011;11798;51.528;7.240;2022-09-09T04:30:28;5.90;;;2.70;;
23258;SDS011;11798;51.528;7.240;2022-09-09T04:32:54;6.20;;;2.20;;
23258;SDS011;11798;51.528;7.240;2022-09-09T04:35:19;6.50;;;2.50;;
23258;SDS011;11798;51.528;7.240;2022-09-09T04:37:45;5.90;;;2.60;;
23258;SDS011;11798;51.528;7.240;2022-09-09T04:40:11;6.63;;;2.73;;
23258;SDS011;11798;51.528;7.240;2022-09-09T04:42:37;4.70;;;2.50;;
23258;SDS011;11798;51.528;7.240;2022-09-09T04:45:03;8.00;;;2.87;;
23258;SDS011;11798;51.528;7.240;2022-09-09T04:47:29;9.97;;;2.90;;
23258;SDS011;11798;51.528;7.240;2022-09-09T04:49:55;6.07;;;2.60;;
23258;SDS011;11798;51.528;7.240;2022-09-09T04:52:21;6.57;;;2.73;;
23258;SDS011;11798;51.528;7.240;2022-09-09T04:54:47;4.70;;;2.40;;
23258;SDS011;11798;51.528;7.240;2022-09-09T04:57:13;7.33;;;3.00;;
23258;SDS011;11798;51.528;7.240;2022-09-09T04:59:38;5.60;;;2.90;;
23258;SDS011;11798;51.528;7.240;2022-09-09T05:02:04;5.67;;;2.37;;
23258;SDS011;11798;51.528;7.240;2022-09-09T05:04:30;4.30;;;2.73;;
23258;SDS011;11798;51.528;7.240;2022-09-09T05:06:56;7.60;;;2.97;;
23258;SDS011;11798;51.528;7.240;2022-09-09T05:09:22;8.13;;;3.13;;
23258;SDS011;11798;51.528;7.240;2022-09-09T05:11:47;8.77;;;2.80;;
23258;SDS011;11798;51.528;7.240;2022-09-09T05:14:13;8.07;;;3.00;;
23258;SDS011;11798;51.528;7.240;2022-09-09T05:16:40;6.47;;;3.43;;
23258;SDS011;11798;51.528;7.240;2022-09-09T05:19:05;7.47;;;3.23;;
23258;SDS011;11798;51.528;7.240;2022-09-09T05:21:33;9.43;;;3.03;;
23258;SDS011;11798;51.528;7.240;2022-09-09T05:23:58;6.77;;;2.57;;
23258;SDS011;11798;51.528;7.240;2022-09-09T05:26:25;7.50;;;2.47;;
23258;SDS011;11798;51.528;7.240;2022-09-09T05:28:51;8.07;;;2.63;;
23258;SDS011;11798;51.528;7.240;2022-09-09T05:31:17;3.50;;;2.27;;
23258;SDS011;11798;51.528;7.240;2022-09-09T05:33:44;5.90;;;3.03;;
23258;SDS011;11798;51.528;7.240;2022-09-09T05:36:14;8.33;;;2.57;;
23258;SDS011;11798;51.528;7.240;2022-09-09T05:38:41;7.23;;;2.50;;
23258;SDS011;11798;51.528;7.240;2022-09-09T05:41:08;7.50;;;2.53;;
23258;SDS011;11798;51.528;7.240;2022-09-09T05:43:36;6.73;;;3.00;;
23258;SDS011;11798;51.528;7.240;2022-09-09T05:46:09;7.80;;;3.10;;
23258;SDS011;11798;51.528;7.240;2022-09-09T05:48:43;4.17;;;2.40;;
23258;SDS011;11798;51.528;7.240;2022-09-09T05:51:12;7.37;;;2.77;;
23258;SDS011;11798;51.528;7.240;2022-09-09T05:53:56;5.10;;;2.30;;
23258;SDS011;11798;51.528;7.240;2022-09-09T05:56:26;10.07;;;3.27;;
23258;SDS011;11798;51.528;7.240;2022-09-09T05:58:53;8.03;;;2.87;;
23258;SDS011;11798;51.528;7.240;2022-09-09T06:01:24;8.20;;;2.40;;
23258;SDS011;11798;51.528;7.240;2022-09-09T06:03:51;6.17;;;2.70;;
23258;SDS011;11798;51.528;7.240;2022-09-09T06:06:18;8.17;;;2.97;;
23258;SDS011;11798;51.528;7.240;2022-09-09T06:08:46;7.60;;;3.20;;
23258;SDS011;11798;51.528;7.240;2022-09-09T06:11:19;6.70;;;2.77;;
23258;SDS011;11798;51.528;7.240;2022-09-09T06:13:52;8.77;;;3.53;;
23258;SDS011;11798;51.528;7.240;2022-09-09T06:16:20;9.43;;;2.83;;
23258;SDS011;11798;51.528;7.240;2022-09-09T06:18:51;8.77;;;2.50;;
23258;SDS011;11798;51.528;7.240;2022-09-09T06:21:22;9.13;;;2.87;;
23258;SDS011;11798;51.528;7.240;2022-09-09T06:23:48;9.50;;;2.53;;
23258;SDS011;11798;51.528;7.240;2022-09-09T06:26:25;5.43;;;2.60;;
23258;SDS011;11798;51.528;7.240;2022-09-09T06:28:55;6.97;;;2.83;;
23258;SDS011;11798;51.528;7.240;2022-09-09T06:31:23;6.27;;;2.73;;
23258;SDS011;11798;51.528;7.240;2022-09-09T06:33:55;4.53;;;2.47;;
23258;SDS011;11798;51.528;7.240;2022-09-09T06:36:23;4.37;;;2.47;;
23258;SDS011;11798;51.528;7.240;2022-09-09T06:38:58;6.10;;;2.33;;
23258;SDS011;11798;51.528;7.240;2022-09-09T06:41:26;6.70;;;2.30;;
23258;SDS011;11798;51.528;7.240;2022-09-09T06:43:54;9.00;;;2.63;;
23258;SDS011;11798;51.528;7.240;2022-09-09T06:46:24;6.00;;;2.53;;
23258;SDS011;11798;51.528;7.240;2022-09-09T06:48:54;8.00;;;3.13;;
23258;SDS011;11798;51.528;7.240;2022-09-09T06:51:21;8.97;;;2.73;;
23258;SDS011;11798;51.528;7.240;2022-09-09T06:53:52;4.67;;;2.53;;
23258;SDS011;11798;51.528;7.240;2022-09-09T06:56:23;5.87;;;2.57;;
23258;SDS011;11798;51.528;7.240;2022-09-09T06:58:58;4.97;;;2.47;;
23258;SDS011;11798;51.528;7.240;2022-09-09T07:01:26;6.40;;;2.03;;
23258;SDS011;11798;51.528;7.240;2022-09-09T07:03:54;6.33;;;2.37;;
23258;SDS011;11798;51.528;7.240;2022-09-09T07:06:22;6.70;;;2.27;;
23258;SDS011;11798;51.528;7.240;2022-09-09T07:08:52;7.20;;;2.47;;
23258;SDS011;11798;51.528;7.240;2022-09-09T07:11:20;5.77;;;2.27;;
23258;SDS011;11798;51.528;7.240;2022-09-09T07:13:47;7.47;;;2.77;;
23258;SDS011;11798;51.528;7.240;2022-09-09T07:16:14;6.03;;;2.10;;
23258;SDS011;11798;51.528;7.240;2022-09-09T07:18:42;8.90;;;2.07;;
23258;SDS011;11798;51.528;7.240;2022-09-09T07:21:11;5.97;;;2.00;;
23258;SDS011;11798;51.528;7.240;2022-09-09T07:23:38;6.27;;;2.00;;
23258;SDS011;11798;51.528;7.240;2022-09-09T07:26:08;4.60;;;1.90;;
23258;SDS011;11798;51.528;7.240;2022-09-09T07:28:35;8.23;;;2.10;;
23258;SDS011;11798;51.528;7.240;2022-09-09T07:31:01;5.77;;;2.47;;
23258;SDS011;11798;51.528;7.240;2022-09-09T07:33:28;4.73;;;1.80;;
23258;SDS011;11798;51.528;7.240;2022-09-09T07:36:02;4.33;;;1.60;;
23258;SDS011;11798;51.528;7.240;2022-09-09T07:38:29;4.60;;;1.53;;
23258;SDS011;11798;51.528;7.240;2022-09-09T07:41:02;6.17;;;1.87;;
23258;SDS011;11798;51.528;7.240;2022-09-09T07:43:39;6.93;;;1.63;;
23258;SDS011;11798;51.528;7.240;2022-09-09T07:46:09;5.27;;;1.70;;
23258;SDS011;11798;51.528;7.240;2022-09-09T07:48:37;5.03;;;1.70;;
23258;SDS011;11798;51.528;7.240;2022-09-09T07:51:07;5.67;;;1.70;;
23258;SDS011;11798;51.528;7.240;2022-09-09T07:53:35;6.63;;;1.40;;
23258;SDS011;11798;51.528;7.240;2022-09-09T07:56:03;2.63;;;1.27;;
23258;SDS011;11798;51.528;7.240;2022-09-09T07:58:34;7.43;;;1.97;;
23258;SDS011;11798;51.528;7.240;2022-09-09T08:01:10;6.93;;;1.60;;
23258;SDS011;11798;51.528;7.240;2022-09-09T08:03:42;6.07;;;1.70;;
23258;SDS011;11798;51.528;7.240;2022-09-09T08:06:09;3.87;;;1.30;;
23258;SDS011;11798;51.528;7.240;2022-09-09T08:08:36;5.13;;;1.90;;
23258;SDS011;11798;51.528;7.240;2022-09-09T08:11:10;4.93;;;1.93;;
23258;SDS011;11798;51.528;7.240;2022-09-09T08:13:36;5.40;;;1.83;;
23258;SDS011;11798;51.528;7.240;2022-09-09T08:16:24;7.63;;;1.73;;
23258;SDS011;11798;51.528;7.240;2022-09-09T08:18:51;7.10;;;2.00;;
23258;SDS011;11798;51.528;7.240;2022-09-09T08:21:19;2.53;;;1.47;;
23258;SDS011;11798;51.528;7.240;2022-09-09T08:23:47;5.27;;;1.90;;
23258;SDS011;11798;51.528;7.240;2022-09-09T08:26:16;2.70;;;1.47;;
23258;SDS011;11798;51.528;7.240;2022-09-09T08:28:47;4.27;;;1.53;;
23258;SDS011;11798;51.528;7.240;2022-09-09T08:31:24;6.33;;;1.80;;
23258;SDS011;11798;51.528;7.240;2022-09-09T08:33:53;6.87;;;2.30;;
23258;SDS011;11798;51.528;7.240;2022-09-09T08:36:20;6.47;;;1.83;;
23258;SDS011;11798;51.528;7.240;2022-09-09T08:38:47;6.07;;;1.87;;
23258;SDS011;11798;51.528;7.240;2022-09-09T08:49:50;8.97;;;2.23;;
23258;SDS011;11798;51.528;7.240;2022-09-09T08:52:20;3.93;;;1.50;;
23258;SDS011;11798;51.528;7.240;2022-09-09T08:57:57;4.53;;;1.57;;
23258;SDS011;11798;51.528;7.240;2022-09-09T09:01:22;2.60;;;1.80;;
23258;SDS011;11798;51.528;7.240;2022-09-09T09:09:01;9.87;;;2.73;;
23258;SDS011;11798;51.528;7.240;2022-09-09T09:11:34;5.13;;;2.27;;
23258;SDS011;11798;51.528;7.240;2022-09-09T09:14:09;7.83;;;2.50;;
23258;SDS011;11798;51.528;7.240;2022-09-09T09:16:39;5.90;;;2.53;;
23258;SDS011;11798;51.528;7.240;2022-09-09T09:19:16;5.83;;;2.33;;
23258;SDS011;11798;51.528;7.240;2022-09-09T09:21:44;5.10;;;2.63;;
23258;SDS011;11798;51.528;7.240;2022-09-09T09:24:40;3.80;;;2.40;;
23258;SDS011;11798;51.528;7.240;2022-09-09T09:27:18;5.13;;;2.43;;
23258;SDS011;11798;51.528;7.240;2022-09-09T09:29:55;7.17;;;2.33;;
23258;SDS011;11798;51.528;7.240;2022-09-09T09:32:23;8.17;;;2.40;;
23258;SDS011;11798;51.528;7.240;2022-09-09T09:34:51;3.40;;;1.93;;
23258;SDS011;11798;51.528;7.240;2022-09-09T09:37:31;4.17;;;2.13;;
23258;SDS011;11798;51.528;7.240;2022-09-09T09:40:13;3.67;;;2.00;;
23258;SDS011;11798;51.528;7.240;2022-09-09T09:42:54;3.07;;;1.90;;
23258;SDS011;11798;51.528;7.240;2022-09-09T09:48:00;9.13;;;2.03;;
23258;SDS011;11798;51.528;7.240;2022-09-09T09:50:34;5.37;;;1.57;;
23258;SDS011;11798;51.528;7.240;2022-09-09T09:53:02;5.17;;;2.13;;
23258;SDS011;11798;51.528;7.240;2022-09-09T09:55:29;7.53;;;2.10;;
23258;SDS011;11798;51.528;7.240;2022-09-09T09:58:04;5.93;;;1.70;;
23258;SDS011;11798;51.528;7.240;2022-09-09T10:00:31;7.37;;;2.00;;
23258;SDS011;11798;51.528;7.240;2022-09-09T10:03:00;8.43;;;2.37;;
23258;SDS011;11798;51.528;7.240;2022-09-09T10:05:26;3.80;;;1.43;;
23258;SDS011;11798;51.528;7.240;2022-09-09T10:08:15;6.93;;;1.70;;
23258;SDS011;11798;51.528;7.240;2022-09-09T10:18:59;4.73;;;1.97;;
23258;SDS011;11798;51.528;7.240;2022-09-09T10:26:51;6.07;;;1.50;;
23258;SDS011;11798;51.528;7.240;2022-09-09T10:32:04;6.77;;;1.63;;
23258;SDS011;11798;51.528;7.240;2022-09-09T10:34:52;3.63;;;1.40;;
23258;SDS011;11798;51.528;7.240;2022-09-09T10:37:38;7.03;;;1.80;;
23258;SDS011;11798;51.528;7.240;2022-09-09T10:40:26;6.53;;;1.60;;
23258;SDS011;11798;51.528;7.240;2022-09-09T10:51:28;3.53;;;1.30;;
23258;SDS011;11798;51.528;7.240;2022-09-09T10:56:49;3.53;;;1.40;;
23258;SDS011;11798;51.528;7.240;2022-09-09T10:59:24;3.17;;;1.50;;
23258;SDS011;11798;51.528;7.240;2022-09-09T11:01:55;4.20;;;1.10;;
23258;SDS011;11798;51.528;7.240;2022-09-09T11:04:47;3.23;;;1.43;;
23258;SDS011;11798;51.528;7.240;2022-09-09T11:10:19;4.30;;;1.80;;
23258;SDS011;11798;51.528;7.240;2022-09-09T11:12:56;3.63;;;1.37;;
23258;SDS011;11798;51.528;7.240;2022-09-09T11:15:31;4.77;;;1.30;;
23258;SDS011;11798;51.528;7.240;2022-09-09T11:18:11;4.20;;;1.30;;
23258;SDS011;11798;51.528;7.240;2022-09-09T11:20:40;3.97;;;1.10;;
23258;SDS011;11798;51.528;7.240;2022-09-09T11:23:15;3.87;;;1.20;;
23258;SDS011;11798;51.528;7.240;2022-09-09T11:25:51;3.03;;;1.27;;
23258;SDS011;11798;51.528;7.240;2022-09-09T11:39:04;4.10;;;1.03;;
23258;SDS011;11798;51.528;7.240;2022-09-09T11:41:38;5.77;;;1.10;;
23258;SDS011;11798;51.528;7.240;2022-09-09T11:44:16;3.10;;;1.20;;
23258;SDS011;11798;51.528;7.240;2022-09-09T11:46:49;3.57;;;1.20;;
23258;SDS011;11798;51.528;7.240;2022-09-09T11:49:27;3.63;;;1.13;;
23258;SDS011;11798;51.528;7.240;2022-09-09T11:51:56;3.42;;;1.00;;
23258;SDS011;11798;51.528;7.240;2022-09-09T11:54:27;4.28;;;1.30;;
23258;SDS011;11798;51.528;7.240;2022-09-09T11:56:58;2.85;;;1.27;;
23258;SDS011;11798;51.528;7.240;2022-09-09T11:59:25;2.65;;;0.93;;
23258;SDS011;11798;51.528;7.240;2022-09-09T12:04:38;4.20;;;1.00;;
23258;SDS011;11798;51.528;7.240;2022-09-09T12:19:47;3.47;;;1.25;;
23258;SDS011;11798;51.528;7.240;2022-09-09T12:33:50;4.30;;;1.20;;
23258;SDS011;11798;51.528;7.240;2022-09-09T12:36:25;2.37;;;1.27;;
23258;SDS011;11798;51.528;7.240;2022-09-09T12:38:58;2.73;;;1.00;;
23258;SDS011;11798;51.528;7.240;2022-09-09T12:41:35;3.43;;;1.20;;
23258;SDS011;11798;51.528;7.240;2022-09-09T12:44:04;4.70;;;1.20;;
23258;SDS011;11798;51.528;7.240;2022-09-09T12:46:35;2.17;;;1.00;;
23258;SDS011;11798;51.528;7.240;2022-09-09T12:49:05;3.17;;;1.10;;
23258;SDS011;11798;51.528;7.240;2022-09-09T12:51:46;1.47;;;0.80;;
23258;SDS011;11798;51.528;7.240;2022-09-09T12:54:12;3.13;;;1.00;;
23258;SDS011;11798;51.528;7.240;2022-09-09T12:56:40;2.47;;;1.00;;
23258;SDS011;11798;51.528;7.240;2022-09-09T12:59:21;2.17;;;1.00;;
23258;SDS011;11798;51.528;7.240;2022-09-09T13:02:44;2.03;;;1.05;;
23258;SDS011;11798;51.528;7.240;2022-09-09T13:05:13;2.45;;;1.05;;
23258;SDS011;11798;51.528;7.240;2022-09-09T13:07:41;2.07;;;0.90;;
23258;SDS011;11798;51.528;7.240;2022-09-09T13:10:10;5.20;;;1.30;;
23258;SDS011;11798;51.528;7.240;2022-09-09T13:12:36;2.33;;;0.83;;
23258;SDS011;11798;51.528;7.240;2022-09-09T13:15:03;3.20;;;1.13;;
23258;SDS011;11798;51.528;7.240;2022-09-09T13:17:29;3.07;;;1.00;;
23258;SDS011;11798;51.528;7.240;2022-09-09T13:19:54;2.07;;;1.10;;
23258;SDS011;11798;51.528;7.240;2022-09-09T13:22:31;3.67;;;1.40;;
23258;SDS011;11798;51.528;7.240;2022-09-09T13:27:51;3.10;;;1.20;;
23258;SDS011;11798;51.528;7.240;2022-09-09T13:30:25;1.50;;;1.07;;
23258;SDS011;11798;51.528;7.240;2022-09-09T13:33:05;2.83;;;1.30;;
23258;SDS011;11798;51.528;7.240;2022-09-09T13:35:35;2.57;;;0.97;;
23258;SDS011;11798;51.528;7.240;2022-09-09T13:38:21;1.70;;;0.87;;
23258;SDS011;11798;51.528;7.240;2022-09-09T13:40:55;4.87;;;1.40;;
23258;SDS011;11798;51.528;7.240;2022-09-09T13:43:25;3.63;;;0.93;;
23258;SDS011;11798;51.528;7.240;2022-09-09T13:46:01;3.70;;;1.10;;
23258;SDS011;11798;51.528;7.240;2022-09-09T13:48:29;2.83;;;1.47;;
23258;SDS011;11798;51.528;7.240;2022-09-09T13:51:03;5.90;;;1.70;;
23258;SDS011;11798;51.528;7.240;2022-09-09T13:53:30;7.50;;;2.07;;
23258;SDS011;11798;51.528;7.240;2022-09-09T13:55:57;15.53;;;4.10;;
23258;SDS011;11798;51.528;7.240;2022-09-09T13:58:23;7.13;;;2.50;;
23258;SDS011;11798;51.528;7.240;2022-09-09T14:00:50;6.07;;;2.30;;
23258;SDS011;11798;51.528;7.240;2022-09-09T14:03:17;5.27;;;2.03;;
23258;SDS011;11798;51.528;7.240;2022-09-09T14:05:43;4.57;;;1.90;;
23258;SDS011;11798;51.528;7.240;2022-09-09T14:08:12;4.83;;;1.97;;
23258;SDS011;11798;51.528;7.240;2022-09-09T14:10:46;6.03;;;1.90;;
23258;SDS011;11798;51.528;7.240;2022-09-09T14:13:12;4.13;;;1.83;;
23258;SDS011;11798;51.528;7.240;2022-09-09T14:15:38;6.83;;;2.10;;
23258;SDS011;11798;51.528;7.240;2022-09-09T14:18:04;7.20;;;2.27;;
23258;SDS011;11798;51.528;7.240;2022-09-09T14:20:30;6.33;;;2.60;;
23258;SDS011;11798;51.528;7.240;2022-09-09T14:22:55;6.07;;;2.13;;
23258;SDS011;11798;51.528;7.240;2022-09-09T14:25:23;5.80;;;2.63;;
23258;SDS011;11798;51.528;7.240;2022-09-09T14:27:48;5.57;;;2.40;;
23258;SDS011;11798;51.528;7.240;2022-09-09T14:30:16;6.93;;;2.57;;
23258;SDS011;11798;51.528;7.240;2022-09-09T14:32:41;3.60;;;1.87;;
23258;SDS011;11798;51.528;7.240;2022-09-09T14:35:07;5.20;;;1.90;;
23258;SDS011;11798;51.528;7.240;2022-09-09T14:37:33;2.90;;;1.70;;
23258;SDS011;11798;51.528;7.240;2022-09-09T14:39:59;4.73;;;1.73;;
23258;SDS011;11798;51.528;7.240;2022-09-09T14:42:25;6.53;;;2.07;;
23258;SDS011;11798;51.528;7.240;2022-09-09T14:44:51;3.87;;;1.70;;
23258;SDS011;11798;51.528;7.240;2022-09-09T14:47:17;10.07;;;2.27;;
23258;SDS011;11798;51.528;7.240;2022-09-09T14:49:42;6.53;;;2.20;;
23258;SDS011;11798;51.528;7.240;2022-09-09T14:52:08;3.37;;;1.67;;
23258;SDS011;11798;51.528;7.240;2022-09-09T14:54:34;6.67;;;1.87;;
23258;SDS011;11798;51.528;7.240;2022-09-09T14:56:59;3.70;;;1.60;;
23258;SDS011;11798;51.528;7.240;2022-09-09T14:59:25;4.30;;;1.40;;
23258;SDS011;11798;51.528;7.240;2022-09-09T15:01:51;4.23;;;1.80;;
23258;SDS011;11798;51.528;7.240;2022-09-09T15:04:17;4.70;;;1.93;;
23258;SDS011;11798;51.528;7.240;2022-09-09T15:06:44;4.43;;;2.33;;
23258;SDS011;11798;51.528;7.240;2022-09-09T15:09:13;4.40;;;1.97;;
23258;SDS011;11798;51.528;7.240;2022-09-09T15:11:39;3.50;;;1.80;;
23258;SDS011;11798;51.528;7.240;2022-09-09T15:14:05;3.67;;;1.70;;
23258;SDS011;11798;51.528;7.240;2022-09-09T15:16:32;3.73;;;1.73;;
23258;SDS011;11798;51.528;7.240;2022-09-09T15:18:59;5.00;;;1.80;;
23258;SDS011;11798;51.528;7.240;2022-09-09T15:21:27;5.27;;;2.00;;
23258;SDS011;11798;51.528;7.240;2022-09-09T15:23:54;7.10;;;2.70;;
23258;SDS011;11798;51.528;7.240;2022-09-09T15:26:21;2.70;;;1.40;;
23258;SDS011;11798;51.528;7.240;2022-09-09T15:28:47;4.40;;;1.80;;
23258;SDS011;11798;51.528;7.240;2022-09-09T15:31:15;4.40;;;1.50;;
23258;SDS011;11798;51.528;7.240;2022-09-09T15:33:49;5.07;;;1.80;;
23258;SDS011;11798;51.528;7.240;2022-09-09T15:38:43;2.90;;;1.27;;
23258;SDS011;11798;51.528;7.240;2022-09-09T15:41:10;4.07;;;1.60;;
23258;SDS011;11798;51.528;7.240;2022-09-09T15:43:37;3.73;;;1.47;;
23258;SDS011;11798;51.528;7.240;2022-09-09T15:48:51;2.73;;;1.33;;
23258;SDS011;11798;51.528;7.240;2022-09-09T15:51:18;4.90;;;1.30;;
23258;SDS011;11798;51.528;7.240;2022-09-09T15:53:44;3.90;;;1.20;;
23258;SDS011;11798;51.528;7.240;2022-09-09T15:56:10;1.67;;;0.70;;
23258;SDS011;11798;51.528;7.240;2022-09-09T15:58:36;2.83;;;0.80;;
23258;SDS011;11798;51.528;7.240;2022-09-09T16:01:04;1.23;;;0.80;;
23258;SDS011;11798;51.528;7.240;2022-09-09T16:03:36;2.43;;;1.00;;
23258;SDS011;11798;51.528;7.240;2022-09-09T16:06:03;4.17;;;1.07;;
23258;SDS011;11798;51.528;7.240;2022-09-09T16:08:33;3.70;;;1.10;;
23258;SDS011;11798;51.528;7.240;2022-09-09T16:11:10;3.63;;;1.53;;
23258;SDS011;11798;51.528;7.240;2022-09-09T16:13:40;1.90;;;0.77;;
23258;SDS011;11798;51.528;7.240;2022-09-09T16:16:07;1.93;;;0.73;;
23258;SDS011;11798;51.528;7.240;2022-09-09T16:18:38;2.63;;;0.80;;
23258;SDS011;11798;51.528;7.240;2022-09-09T16:21:06;2.37;;;0.97;;
23258;SDS011;11798;51.528;7.240;2022-09-09T16:23:33;2.60;;;1.10;;
23258;SDS011;11798;51.528;7.240;2022-09-09T16:25:59;2.10;;;1.00;;
23258;SDS011;11798;51.528;7.240;2022-09-09T16:28:25;2.60;;;1.10;;
23258;SDS011;11798;51.528;7.240;2022-09-09T16:30:51;2.00;;;1.00;;
23258;SDS011;11798;51.528;7.240;2022-09-09T16:33:17;3.53;;;1.10;;
23258;SDS011;11798;51.528;7.240;2022-09-09T16:35:43;3.33;;;1.00;;
23258;SDS011;11798;51.528;7.240;2022-09-09T16:38:09;2.00;;;1.00;;
23258;SDS011;11798;51.528;7.240;2022-09-09T16:40:35;1.77;;;1.00;;
23258;SDS011;11798;51.528;7.240;2022-09-09T16:43:02;1.47;;;0.80;;
23258;SDS011;11798;51.528;7.240;2022-09-09T16:45:31;3.10;;;0.90;;
23258;SDS011;11798;51.528;7.240;2022-09-09T16:47:57;3.80;;;1.27;;
23258;SDS011;11798;51.528;7.240;2022-09-09T16:50:24;2.27;;;1.10;;
23258;SDS011;11798;51.528;7.240;2022-09-09T16:52:51;3.93;;;1.43;;
23258;SDS011;11798;51.528;7.240;2022-09-09T16:55:17;2.97;;;1.23;;
23258;SDS011;11798;51.528;7.240;2022-09-09T16:57:45;4.17;;;1.50;;
23258;SDS011;11798;51.528;7.240;2022-09-09T17:00:13;5.17;;;1.77;;
23258;SDS011;11798;51.528;7.240;2022-09-09T17:02:41;2.40;;;1.30;;
23258;SDS011;11798;51.528;7.240;2022-09-09T17:05:08;2.57;;;1.30;;
23258;SDS011;11798;51.528;7.240;2022-09-09T17:07:34;5.77;;;1.50;;
23258;SDS011;11798;51.528;7.240;2022-09-09T17:10:00;3.13;;;1.77;;
23258;SDS011;11798;51.528;7.240;2022-09-09T17:12:26;8.67;;;1.70;;
23258;SDS011;11798;51.528;7.240;2022-09-09T17:14:52;3.70;;;1.70;;
23258;SDS011;11798;51.528;7.240;2022-09-09T17:17:17;3.20;;;1.77;;
23258;SDS011;11798;51.528;7.240;2022-09-09T17:19:43;4.67;;;1.73;;
23258;SDS011;11798;51.528;7.240;2022-09-09T17:22:08;3.67;;;1.67;;
23258;SDS011;11798;51.528;7.240;2022-09-09T17:24:34;4.40;;;1.60;;
23258;SDS011;11798;51.528;7.240;2022-09-09T17:27:03;2.17;;;1.60;;
23258;SDS011;11798;51.528;7.240;2022-09-09T17:29:29;2.83;;;1.50;;
23258;SDS011;11798;51.528;7.240;2022-09-09T17:31:54;2.57;;;1.40;;
23258;SDS011;11798;51.528;7.240;2022-09-09T17:34:20;3.93;;;1.73;;
23258;SDS011;11798;51.528;7.240;2022-09-09T17:36:46;3.20;;;1.40;;
23258;SDS011;11798;51.528;7.240;2022-09-09T17:39:12;4.50;;;1.77;;